Denton, Texas
Current Conditions -  °F | °C
As of 10:53 PM on Wednesday 22 Oct 2014 (Local Time) from KDTO Reporting Station
Clear Clear  
Wind Chill: 70°   Ceiling: Unl
Heat Index: 70°   Visibility: 10mi
Dew Point: 57°   Wind: 7mph
Humidity: 63%   Direction: 120°ESE
Pressure: 30.1"   Gusts: NA
Location:  33.22°N, 97.13°W
Report Text: KDTO 230353Z AUTO 12006KT 10SM CLR 21/14 A3010 RMK AO2 SLP187 T02110139
Loading
Personal Weather Stations






























Interactive Weather Map
Tropical Storm Tracking
New forecast layout! Learn more

10-Day Weather Forecast

Advertisements
Track Severe Weather on mobile